ENHV/HVG METAR and TAF weather

Enter ICAO airport designator
Station Type Date Time Source
ENHV METAR 2021/02/26 20:50 UTC NOAA

ENHV 262050Z 30014KT 9999 FEW015 BKN024 02/M02 Q1009


Station Type Date Time Source
ENHV Decoded METAR 2021/02/26 20:50 UTC NOAA

Honningsvag / Valan, Norway (ENHV) 71-01N 025-59E 14M
Feb 26, 2021 - 03:50 PM EST / 2021.02.26 2050 UTC
Wind: from the WNW (300 degrees) at 16 MPH (14 KT):0
Visibility: greater than 7 mile(s):0
Sky conditions: mostly cloudy
Temperature: 35 F (2 C)
Windchill: 24 F (-4 C):1
Dew Point: 28 F (-2 C)
Relative Humidity: 74%
Pressure (altimeter): 29.80 in. Hg (1009 hPa)
ob: ENHV 262050Z 30014KT 9999 FEW015 BKN024 02/M02 Q1009
cycle: 21

Station Type Date Time Source
ENHV TAF UTC NOAA

Error!

Example: see airport list